createdAt,value
2022-09-12T00:01:46.053Z,99.75
2022-09-12T00:02:46.008Z,99.65
2022-09-12T00:04:39.124Z,99.34
2022-09-12T00:05:39.106Z,99.14
2022-09-12T00:07:32.206Z,99.95
2022-09-12T00:08:32.194Z,99.54
2022-09-12T00:10:36.184Z,99.65
2022-09-12T00:11:36.170Z,99.99
2022-09-12T00:13:29.081Z,99.54
2022-09-12T00:14:29.071Z,99.99
2022-09-12T00:16:33.130Z,99.95
2022-09-12T00:17:33.053Z,99.75
2022-09-12T00:19:37.047Z,99.99
2022-09-12T00:20:37.029Z,99.75
2022-09-12T00:22:41.029Z,99.75
2022-09-12T00:23:41.020Z,99.99
2022-09-12T00:25:45.005Z,99.59
2022-09-12T00:26:44.989Z,99.99
2022-09-12T00:28:48.986Z,99.99
2022-09-12T00:29:48.976Z,99.69
2022-09-12T00:31:53.005Z,99.99
2022-09-12T00:33:01.603Z,99.99
2022-09-12T00:34:57.438Z,99.99
2022-09-12T00:35:57.417Z,99.99
2022-09-12T00:36:57.414Z,99.99
2022-09-12T00:37:57.405Z,99.99
2022-09-12T00:38:57.400Z,99.99
2022-09-12T00:39:57.452Z,99.99
2022-09-12T00:40:57.387Z,99.99
2022-09-12T00:41:57.377Z,99.99
2022-09-12T00:42:57.373Z,99.99
2022-09-12T00:43:57.368Z,99.99
2022-09-12T00:44:57.362Z,99.99
2022-09-12T00:45:57.430Z,99.99
2022-09-12T00:46:57.349Z,99.99
2022-09-12T00:47:57.345Z,99.99
2022-09-12T00:48:57.336Z,99.99
2022-09-12T00:49:57.329Z,99.99
2022-09-12T00:50:57.326Z,99.99
2022-09-12T00:51:57.318Z,99.99
2022-09-12T00:52:57.311Z,99.99
2022-09-12T00:53:57.306Z,99.99
2022-09-12T00:54:57.300Z,99.99
2022-09-12T00:55:57.290Z,99.99
2022-09-12T00:56:57.283Z,99.99
2022-09-12T00:57:57.279Z,99.99
2022-09-12T00:58:57.273Z,99.99
2022-09-12T00:59:57.268Z,99.99
2022-09-12T01:00:57.370Z,99.99
2022-09-12T01:01:57.323Z,99.99
2022-09-12T01:02:57.250Z,99.99
2022-09-12T01:03:57.241Z,99.99
2022-09-12T01:04:57.237Z,99.99
2022-09-12T01:05:57.224Z,99.99
2022-09-12T01:06:57.222Z,99.99
2022-09-12T01:07:57.215Z,99.99
2022-09-12T01:08:57.213Z,99.99
2022-09-12T01:09:57.202Z,99.99
2022-09-12T01:10:57.212Z,99.99
2022-09-12T01:11:57.193Z,99.99
2022-09-12T01:12:57.182Z,99.99
2022-09-12T01:13:57.175Z,99.99
2022-09-12T01:14:57.171Z,99.99
2022-09-12T01:15:57.166Z,99.99
2022-09-12T01:16:57.160Z,99.99
2022-09-12T01:17:57.155Z,99.99
2022-09-12T01:18:57.145Z,99.99
2022-09-12T01:19:57.140Z,99.99
2022-09-12T01:20:57.135Z,99.99
2022-09-12T01:21:57.125Z,99.99
2022-09-12T01:22:57.118Z,99.99
2022-09-12T01:23:57.114Z,99.99
2022-09-12T01:24:57.109Z,99.99
2022-09-12T01:25:57.102Z,99.99
2022-09-12T01:26:57.094Z,99.99
2022-09-12T01:27:57.085Z,99.99
2022-09-12T01:28:57.079Z,99.99
2022-09-12T01:29:57.074Z,99.99
2022-09-12T01:30:57.068Z,99.99
2022-09-12T01:31:57.065Z,99.99
2022-09-12T01:32:57.060Z,99.99
2022-09-12T01:33:57.049Z,99.99
2022-09-12T01:34:57.042Z,99.99
2022-09-12T01:35:57.037Z,99.99
2022-09-12T01:36:57.030Z,99.99
2022-09-12T01:37:57.031Z,99.99
2022-09-12T01:38:57.017Z,99.99
2022-09-12T01:39:57.028Z,99.99
2022-09-12T01:40:57.013Z,99.99
2022-09-12T01:41:56.995Z,99.99
2022-09-12T01:42:56.993Z,99.99
2022-09-12T01:43:56.983Z,99.99
2022-09-12T01:44:56.977Z,99.99
2022-09-12T01:45:57.009Z,99.99
2022-09-12T01:46:56.966Z,99.99
2022-09-12T01:47:56.959Z,99.99
2022-09-12T01:48:56.951Z,99.99
2022-09-12T01:49:56.945Z,99.99
2022-09-12T01:50:56.942Z,99.99
2022-09-12T01:51:56.932Z,99.99
2022-09-12T01:52:56.923Z,99.99
2022-09-12T01:53:56.917Z,99.99
2022-09-12T01:54:56.916Z,99.99
2022-09-12T01:55:56.908Z,99.99
2022-09-12T01:56:56.899Z,99.99
2022-09-12T01:57:56.893Z,99.99
2022-09-12T01:58:56.892Z,99.99
2022-09-12T01:59:56.885Z,99.99
2022-09-12T02:00:56.917Z,99.99
2022-09-12T02:01:56.892Z,99.99
2022-09-12T02:02:56.861Z,99.99
2022-09-12T02:03:56.855Z,99.99
2022-09-12T02:04:56.845Z,99.99
2022-09-12T02:05:56.840Z,99.99
2022-09-12T02:06:56.838Z,99.99
2022-09-12T02:07:56.833Z,99.99
2022-09-12T02:08:56.819Z,99.99
2022-09-12T02:09:56.816Z,99.99
2022-09-12T02:10:56.810Z,99.99
2022-09-12T02:11:56.802Z,99.99
2022-09-12T02:12:56.794Z,99.99
2022-09-12T02:13:56.797Z,99.99
2022-09-12T02:14:56.782Z,99.99
2022-09-12T02:15:56.777Z,99.99
2022-09-12T02:16:56.773Z,99.99
2022-09-12T02:17:56.764Z,99.99
2022-09-12T02:18:56.755Z,99.99
2022-09-12T02:19:56.749Z,99.99
2022-09-12T02:20:56.742Z,99.99
2022-09-12T02:21:56.736Z,99.99
2022-09-12T02:22:56.728Z,99.99
2022-09-12T02:23:56.723Z,99.99
2022-09-12T02:24:56.716Z,99.99
2022-09-12T02:25:56.709Z,99.99
2022-09-12T02:26:56.702Z,99.99
2022-09-12T02:27:56.698Z,99.99
2022-09-12T02:28:56.684Z,99.99
2022-09-12T02:29:56.683Z,99.99
2022-09-12T02:30:56.697Z,99.99
2022-09-12T02:31:56.679Z,99.99
2022-09-12T02:32:56.664Z,99.99
2022-09-12T02:33:56.662Z,99.99
2022-09-12T02:34:56.651Z,99.99
2022-09-12T02:35:56.644Z,99.99
2022-09-12T02:36:56.636Z,99.99
2022-09-12T02:37:56.631Z,99.99
2022-09-12T02:38:56.628Z,99.99
2022-09-12T02:39:56.655Z,99.99
2022-09-12T02:40:56.612Z,99.99
2022-09-12T02:41:56.607Z,99.99
2022-09-12T02:42:56.597Z,99.99
2022-09-12T02:43:56.587Z,99.99
2022-09-12T02:44:56.584Z,99.99
2022-09-12T02:45:56.600Z,99.99
2022-09-12T02:46:56.575Z,99.99
2022-09-12T02:47:56.571Z,99.99
2022-09-12T02:48:56.563Z,99.99
2022-09-12T02:49:56.549Z,99.99
2022-09-12T02:50:56.545Z,99.99
2022-09-12T02:51:56.534Z,99.99
2022-09-12T02:52:56.529Z,99.99
2022-09-12T02:53:56.524Z,99.99
2022-09-12T02:54:56.517Z,99.99
2022-09-12T02:55:56.506Z,99.99
2022-09-12T02:56:56.502Z,99.99
2022-09-12T02:57:56.496Z,99.99
2022-09-12T02:58:56.485Z,99.99
2022-09-12T02:59:56.484Z,99.99
2022-09-12T03:00:56.516Z,99.99
2022-09-12T03:01:56.506Z,99.99
2022-09-12T03:02:56.465Z,99.99
2022-09-12T03:03:56.463Z,99.99
2022-09-12T03:04:56.449Z,99.99
2022-09-12T03:05:56.443Z,99.99
2022-09-12T03:06:56.434Z,99.99
2022-09-12T03:07:56.432Z,99.99
2022-09-12T03:08:56.423Z,99.99
2022-09-12T03:09:56.419Z,99.99
2022-09-12T03:10:56.411Z,99.99
2022-09-12T03:11:56.403Z,99.99
2022-09-12T03:12:56.400Z,99.99
2022-09-12T03:13:56.388Z,99.99
2022-09-12T03:14:56.382Z,99.99
2022-09-12T03:15:56.378Z,99.99
2022-09-12T03:16:56.368Z,99.99
2022-09-12T03:17:56.361Z,99.99
2022-09-12T03:18:56.355Z,99.99
2022-09-12T03:19:56.355Z,99.99
2022-09-12T03:20:56.343Z,99.99
2022-09-12T03:21:56.336Z,99.99
2022-09-12T03:22:56.329Z,99.99
2022-09-12T03:23:56.324Z,99.99
2022-09-12T03:24:56.315Z,99.99
2022-09-12T03:25:56.311Z,99.99
2022-09-12T03:26:56.302Z,99.99
2022-09-12T03:27:56.293Z,99.99
2022-09-12T03:28:56.286Z,99.99
2022-09-12T03:29:56.280Z,99.99
2022-09-12T03:30:56.343Z,99.99
2022-09-12T03:31:56.270Z,99.99
2022-09-12T03:32:56.261Z,99.99
2022-09-12T03:33:56.253Z,99.99
2022-09-12T03:34:56.245Z,99.99
2022-09-12T03:35:56.247Z,99.99
2022-09-12T03:36:56.231Z,99.99
2022-09-12T03:37:56.228Z,99.99
2022-09-12T03:38:56.219Z,99.99
2022-09-12T03:39:56.236Z,99.99
2022-09-12T03:40:56.210Z,99.99
2022-09-12T03:41:56.199Z,99.99
2022-09-12T03:42:56.191Z,99.99
2022-09-12T03:43:56.181Z,99.99
2022-09-12T03:44:56.190Z,99.99
2022-09-12T03:45:56.189Z,99.99
2022-09-12T03:46:56.162Z,99.99
2022-09-12T03:47:56.158Z,99.99
2022-09-12T03:48:56.146Z,99.99
2022-09-12T03:49:56.140Z,99.99
2022-09-12T03:50:56.131Z,99.99
2022-09-12T03:51:56.158Z,99.99
2022-09-12T03:52:56.121Z,99.99
2022-09-12T03:53:56.115Z,99.99
2022-09-12T03:54:56.107Z,99.99
2022-09-12T03:55:56.102Z,99.99
2022-09-12T03:56:56.093Z,99.99
2022-09-12T03:57:56.085Z,99.99
2022-09-12T03:58:56.081Z,99.99
2022-09-12T03:59:56.073Z,99.99
2022-09-12T04:00:56.107Z,99.99
2022-09-12T04:01:56.097Z,99.99
2022-09-12T04:02:56.063Z,99.99
2022-09-12T04:03:56.043Z,99.99
2022-09-12T04:04:56.038Z,99.99
2022-09-12T04:05:56.030Z,99.99
2022-09-12T04:06:56.023Z,99.99
2022-09-12T04:07:56.017Z,99.99
2022-09-12T04:08:56.011Z,99.99
2022-09-12T04:09:56.006Z,99.99
2022-09-12T04:10:55.995Z,99.99
2022-09-12T04:11:55.991Z,99.99
2022-09-12T04:12:55.978Z,99.99
2022-09-12T04:13:55.975Z,99.99
2022-09-12T04:14:55.969Z,99.99
2022-09-12T04:15:55.962Z,99.99
2022-09-12T04:16:56.013Z,99.99
2022-09-12T04:17:55.948Z,99.99
2022-09-12T04:18:55.940Z,99.99
2022-09-12T04:19:55.928Z,99.99
2022-09-12T04:20:55.927Z,99.99
2022-09-12T04:21:55.916Z,99.99
2022-09-12T04:22:55.910Z,99.99
2022-09-12T04:23:55.902Z,99.99
2022-09-12T04:24:55.896Z,99.99
2022-09-12T04:25:55.888Z,99.99
2022-09-12T04:26:55.884Z,99.99
2022-09-12T04:27:55.872Z,99.99
2022-09-12T04:28:55.867Z,99.99
2022-09-12T04:29:55.861Z,99.99
2022-09-12T04:30:55.879Z,99.99
2022-09-12T04:31:55.844Z,99.99
2022-09-12T04:32:55.837Z,99.99
2022-09-12T04:33:55.832Z,99.99
2022-09-12T04:34:55.821Z,99.99
2022-09-12T04:35:55.818Z,99.99
2022-09-12T04:36:55.811Z,99.99
2022-09-12T04:37:55.803Z,99.99
2022-09-12T04:38:55.799Z,99.99
2022-09-12T04:39:55.821Z,99.99
2022-09-12T04:40:55.782Z,99.99
2022-09-12T04:41:55.772Z,99.99
2022-09-12T04:42:55.768Z,99.99
2022-09-12T04:43:55.760Z,99.99
2022-09-12T04:44:55.754Z,99.99
2022-09-12T04:45:55.788Z,99.99
2022-09-12T04:46:55.738Z,99.99
2022-09-12T04:47:55.729Z,99.99
2022-09-12T04:48:57.081Z,99.99
2022-09-12T04:49:55.718Z,99.99
2022-09-12T04:50:55.709Z,99.99
2022-09-12T04:51:55.704Z,99.99
2022-09-12T04:52:55.695Z,99.99
2022-09-12T04:53:55.686Z,99.99
2022-09-12T04:54:55.694Z,99.99
2022-09-12T04:55:55.667Z,99.99
2022-09-12T04:56:55.672Z,99.99
2022-09-12T04:57:55.662Z,99.99
2022-09-12T04:58:55.651Z,99.99
2022-09-12T04:59:55.643Z,99.99
2022-09-12T05:00:55.650Z,99.99
2022-09-12T05:01:55.648Z,99.99
2022-09-12T05:02:55.621Z,99.99
2022-09-12T05:03:55.614Z,99.99
2022-09-12T05:04:55.606Z,99.99
2022-09-12T05:05:56.529Z,99.99
2022-09-12T05:06:55.594Z,99.99
2022-09-12T05:07:55.585Z,99.99
2022-09-12T05:08:55.581Z,99.99
2022-09-12T05:09:55.572Z,99.99
2022-09-12T05:10:55.562Z,99.99
2022-09-12T05:12:04.536Z,99.99
2022-09-12T05:12:55.557Z,99.99
2022-09-12T05:13:55.546Z,99.99
2022-09-12T05:14:55.541Z,99.99
2022-09-12T05:15:55.531Z,99.99
2022-09-12T05:16:55.572Z,99.99
2022-09-12T05:17:55.515Z,99.99
2022-09-12T05:18:55.509Z,99.99
2022-09-12T05:19:55.506Z,99.99
2022-09-12T05:20:55.499Z,99.99
2022-09-12T05:21:55.488Z,99.99
2022-09-12T05:22:55.481Z,99.99
2022-09-12T05:23:55.475Z,99.99
2022-09-12T05:24:55.463Z,99.99
2022-09-12T05:25:55.464Z,99.99
2022-09-12T05:26:55.456Z,99.99
2022-09-12T05:27:55.446Z,99.99
2022-09-12T05:28:55.442Z,99.99
2022-09-12T05:29:55.434Z,99.99
2022-09-12T05:30:55.470Z,99.99
2022-09-12T05:31:55.420Z,99.99
2022-09-12T05:32:55.412Z,99.99
2022-09-12T05:33:55.403Z,99.99
2022-09-12T05:34:55.396Z,99.99
2022-09-12T05:35:55.392Z,99.99
2022-09-12T05:36:55.389Z,99.99
2022-09-12T05:37:55.378Z,99.99
2022-09-12T05:38:55.371Z,97.55
2022-09-12T05:39:55.391Z,96.19
2022-09-12T05:40:55.361Z,94.68
2022-09-12T05:41:55.353Z,90.28
2022-09-12T05:42:55.349Z,89.28
2022-09-12T05:43:55.343Z,84.95
2022-09-12T05:44:55.336Z,84.31
2022-09-12T05:45:55.368Z,81.54
2022-09-12T05:46:55.325Z,78.94
2022-09-12T05:47:55.317Z,77.59
2022-09-12T05:48:56.567Z,77.21
2022-09-12T05:49:55.306Z,73.95
2022-09-12T05:50:55.304Z,72.97
2022-09-12T05:51:55.301Z,71.43
2022-09-12T05:52:55.296Z,70.89
2022-09-12T05:53:55.287Z,69.96
2022-09-12T05:54:55.281Z,67.71
2022-09-12T05:55:55.279Z,67.88
2022-09-12T05:56:55.272Z,67.98
2022-09-12T05:57:55.270Z,66.14
2022-09-12T05:58:55.263Z,65.81
2022-09-12T05:59:55.261Z,65.48
2022-09-12T06:00:55.265Z,63.87
2022-09-12T06:01:55.306Z,64.84
2022-09-12T06:02:55.250Z,64.04
2022-09-12T06:03:55.246Z,63.48
2022-09-12T06:04:55.245Z,64.09
2022-09-12T06:05:55.236Z,62.15
2022-09-12T06:06:55.237Z,61.25
2022-09-12T06:07:55.229Z,62.12
2022-09-12T06:08:55.229Z,61.62
2022-09-12T06:09:55.223Z,60.10
2022-09-12T06:10:57.319Z,60.49
2022-09-12T06:11:55.223Z,59.77
2022-09-12T06:12:55.217Z,60.46
2022-09-12T06:13:55.213Z,60.14
2022-09-12T06:14:55.206Z,59.34
2022-09-12T06:15:55.206Z,59.34
2022-09-12T06:16:55.266Z,59.64
2022-09-12T06:17:55.199Z,59.27
2022-09-12T06:18:55.195Z,59.89
2022-09-12T06:19:55.194Z,59.98
2022-09-12T06:20:55.192Z,61.81
2022-09-12T06:21:55.191Z,64.48
2022-09-12T06:22:55.183Z,64.81
2022-09-12T06:23:55.180Z,65.88
2022-09-12T06:24:58.003Z,64.25
2022-09-12T06:25:55.174Z,64.48
2022-09-12T06:26:55.173Z,63.95
2022-09-12T06:27:55.171Z,61.49
2022-09-12T06:28:55.168Z,61.36
2022-09-12T06:29:55.168Z,60.93
2022-09-12T06:30:55.192Z,58.21
2022-09-12T06:31:55.161Z,59.08
2022-09-12T06:32:55.198Z,58.95
2022-09-12T06:33:55.155Z,58.29
2022-09-12T06:34:55.155Z,56.68
2022-09-12T06:35:55.150Z,57.75
2022-09-12T06:36:55.146Z,54.96
2022-09-12T06:37:55.148Z,54.03
2022-09-12T06:38:55.149Z,53.53
2022-09-12T06:39:56.111Z,54.03
2022-09-12T06:40:55.144Z,53.81
2022-09-12T06:41:55.142Z,55.40
2022-09-12T06:42:55.138Z,55.30
2022-09-12T06:43:55.141Z,53.81
2022-09-12T06:44:55.138Z,52.69
2022-09-12T06:45:55.252Z,52.86
2022-09-12T06:46:55.132Z,52.76
2022-09-12T06:47:55.131Z,52.17
2022-09-12T06:48:55.135Z,51.57
2022-09-12T06:49:55.129Z,51.87
2022-09-12T06:50:55.130Z,51.45
2022-09-12T06:51:55.129Z,52.91
2022-09-12T06:52:55.130Z,51.03
2022-09-12T06:53:55.130Z,51.12
2022-09-12T06:54:55.124Z,52.02
2022-09-12T06:55:55.125Z,51.92
2022-09-12T06:56:55.131Z,50.53
2022-09-12T06:57:55.125Z,52.12
2022-09-12T06:58:55.126Z,52.59
2022-09-12T06:59:55.120Z,50.51
2022-09-12T07:00:58.939Z,50.53
2022-09-12T07:01:55.178Z,52.47
2022-09-12T07:02:55.120Z,52.69
2022-09-12T07:03:55.128Z,52.99
2022-09-12T07:04:55.126Z,53.11
2022-09-12T07:05:55.122Z,53.46
2022-09-12T07:06:55.117Z,54.75
2022-09-12T07:07:55.118Z,55.61
2022-09-12T07:08:55.118Z,57.15
2022-09-12T07:09:55.120Z,58.11
2022-09-12T07:10:55.120Z,60.19
2022-09-12T07:11:55.114Z,61.68
2022-09-12T07:12:55.112Z,64.15
2022-09-12T07:13:55.112Z,65.28
2022-09-12T07:14:55.105Z,66.44
2022-09-12T07:15:55.111Z,67.51
2022-09-12T07:16:55.139Z,68.72
2022-09-12T07:17:55.102Z,69.35
2022-09-12T07:18:55.099Z,69.69
2022-09-12T07:19:55.099Z,70.50
2022-09-12T07:20:55.100Z,71.23
2022-09-12T07:21:58.505Z,72.24
2022-09-12T07:22:55.093Z,72.88
2022-09-12T07:23:55.090Z,73.41
2022-09-12T07:24:55.090Z,74.35
2022-09-12T07:25:55.080Z,76.14
2022-09-12T07:26:55.082Z,76.04
2022-09-12T07:27:55.083Z,75.84
2022-09-12T07:29:00.693Z,76.84
2022-09-12T07:29:55.077Z,77.86
2022-09-12T07:30:55.104Z,77.75
2022-09-12T07:31:55.078Z,78.59
2022-09-12T07:32:55.087Z,78.59
2022-09-12T07:33:55.152Z,79.10
2022-09-12T07:34:55.062Z,79.10
2022-09-12T07:35:55.064Z,79.24
2022-09-12T07:36:55.053Z,78.94
2022-09-12T07:37:55.046Z,79.00
2022-09-12T07:38:57.363Z,79.24
2022-09-12T07:39:55.081Z,79.54
2022-09-12T07:40:55.041Z,80.05
2022-09-12T07:41:55.041Z,79.94
2022-09-12T07:42:55.036Z,80.45
2022-09-12T07:43:55.025Z,80.49
2022-09-12T07:44:55.028Z,80.59
2022-09-12T07:45:55.064Z,81.30
2022-09-12T07:46:55.020Z,81.70
2022-09-12T07:47:55.017Z,82.10
2022-09-12T07:48:55.014Z,82.01
2022-09-12T07:49:55.009Z,82.61
2022-09-12T07:51:02.175Z,81.90
2022-09-12T07:52:48.126Z,81.70
2022-09-12T07:53:48.173Z,82.24
2022-09-12T07:55:41.224Z,82.51
2022-09-12T07:56:41.208Z,82.55
2022-09-12T07:58:45.214Z,82.10
2022-09-12T07:59:53.337Z,83.72
2022-09-12T08:01:38.157Z,82.95
2022-09-12T08:02:38.175Z,83.12
2022-09-12T08:04:31.118Z,82.21
2022-09-12T08:05:31.016Z,82.21
2022-09-12T08:07:35.019Z,82.21
2022-09-12T08:08:35.012Z,81.80
2022-09-12T08:10:27.947Z,83.01
2022-09-12T08:11:27.932Z,83.38
2022-09-12T08:13:21.061Z,81.96
2022-09-12T08:14:21.048Z,82.27
2022-09-12T08:16:14.196Z,81.67
2022-09-12T08:17:14.158Z,81.16
2022-09-12T08:19:29.224Z,80.62
2022-09-12T08:20:29.241Z,80.31
2022-09-12T08:22:22.322Z,80.18
2022-09-12T08:23:22.307Z,79.97
2022-09-12T08:25:15.230Z,78.76
2022-09-12T08:26:15.216Z,79.36
2022-09-12T08:28:08.336Z,78.66
2022-09-12T08:29:08.325Z,78.96
2022-09-12T08:30:08.315Z,79.16
2022-09-12T08:31:08.353Z,78.66
2022-09-12T08:32:08.308Z,79.16
2022-09-12T08:33:08.328Z,79.57
2022-09-12T08:34:08.304Z,79.77
2022-09-12T08:35:08.300Z,79.16
2022-09-12T08:36:08.293Z,78.96
2022-09-12T08:37:08.288Z,79.06
2022-09-12T08:38:08.287Z,78.96
2022-09-12T08:39:08.282Z,77.86
2022-09-12T08:40:08.333Z,77.86
2022-09-12T08:41:08.276Z,76.44
2022-09-12T08:42:08.306Z,76.04
2022-09-12T08:43:08.269Z,76.84
2022-09-12T08:44:08.263Z,76.10
2022-09-12T08:45:08.265Z,77.75
2022-09-12T08:46:08.350Z,75.84
2022-09-12T08:47:08.254Z,76.64
2022-09-12T08:48:08.248Z,75.23
2022-09-12T08:49:08.247Z,75.74
2022-09-12T08:50:08.245Z,76.14
2022-09-12T08:51:08.268Z,75.94
2022-09-12T08:52:08.235Z,74.63
2022-09-12T08:53:08.233Z,74.22
2022-09-12T08:54:08.229Z,74.32
2022-09-12T08:55:08.222Z,74.73
2022-09-12T08:56:08.221Z,75.07
2022-09-12T08:57:08.217Z,73.85
2022-09-12T08:58:08.210Z,74.05
2022-09-12T08:59:08.208Z,73.22
2022-09-12T09:00:08.206Z,72.64
2022-09-12T09:01:08.238Z,72.75
2022-09-12T09:02:08.238Z,73.55
2022-09-12T09:03:08.194Z,73.32
2022-09-12T09:04:08.187Z,73.01
2022-09-12T09:05:08.187Z,73.92
2022-09-12T09:06:08.179Z,70.89
2022-09-12T09:07:08.178Z,71.91
2022-09-12T09:08:08.174Z,70.09
2022-09-12T09:09:08.168Z,69.89
2022-09-12T09:10:08.162Z,70.29
2022-09-12T09:11:08.161Z,72.71
2022-09-12T09:12:08.157Z,73.42
2022-09-12T09:13:08.153Z,72.81
2022-09-12T09:14:08.152Z,71.00
2022-09-12T09:15:08.147Z,70.76
2022-09-12T09:16:08.257Z,69.75
2022-09-12T09:17:08.150Z,71.37
2022-09-12T09:18:08.134Z,70.15
2022-09-12T09:19:08.132Z,70.06
2022-09-12T09:20:08.127Z,70.36
2022-09-12T09:21:08.123Z,68.44
2022-09-12T09:22:08.125Z,69.55
2022-09-12T09:23:08.151Z,68.85
2022-09-12T09:24:08.123Z,69.15
2022-09-12T09:25:08.109Z,69.32
2022-09-12T09:26:08.106Z,68.41
2022-09-12T09:27:18.341Z,69.82
2022-09-12T09:28:08.096Z,68.54
2022-09-12T09:29:08.098Z,69.42
2022-09-12T09:30:08.088Z,69.05
2022-09-12T09:31:08.144Z,70.06
2022-09-12T09:32:08.084Z,69.42
2022-09-12T09:33:08.079Z,69.82
2022-09-12T09:34:08.079Z,68.91
2022-09-12T09:35:08.072Z,69.32
2022-09-12T09:36:08.069Z,70.09
2022-09-12T09:37:08.064Z,69.49
2022-09-12T09:38:08.063Z,70.09
2022-09-12T09:39:08.059Z,69.79
2022-09-12T09:40:08.075Z,69.79
2022-09-12T09:41:08.049Z,69.29
2022-09-12T09:42:08.046Z,69.18
2022-09-12T09:43:08.046Z,68.18
2022-09-12T09:45:08.036Z,69.69
2022-09-12T09:46:08.083Z,69.45
2022-09-12T09:47:08.042Z,69.25
2022-09-12T09:48:08.026Z,68.75
2022-09-12T09:49:08.023Z,69.15
2022-09-12T09:50:08.021Z,69.79
2022-09-12T09:51:08.016Z,67.54
2022-09-12T09:52:08.014Z,66.77
2022-09-12T09:53:08.024Z,67.64
2022-09-12T09:54:08.007Z,68.85
2022-09-12T09:55:08.007Z,66.33
2022-09-12T09:56:08.000Z,68.04
2022-09-12T09:57:07.994Z,67.74
2022-09-12T09:58:07.992Z,68.21
2022-09-12T09:59:07.989Z,68.01
2022-09-12T10:00:07.985Z,67.11
2022-09-12T10:01:07.996Z,66.80
2022-09-12T10:02:08.031Z,67.38
2022-09-12T10:03:11.459Z,66.57
2022-09-12T10:04:07.973Z,67.14
2022-09-12T10:05:07.972Z,65.84
2022-09-12T10:06:07.966Z,65.73
2022-09-12T10:07:07.964Z,65.53
2022-09-12T10:08:07.962Z,64.80
2022-09-12T10:09:07.958Z,65.20
2022-09-12T10:10:07.953Z,64.70
2022-09-12T10:11:07.950Z,64.50
2022-09-12T10:12:07.950Z,64.60
2022-09-12T10:13:07.945Z,64.40
2022-09-12T10:14:07.947Z,64.20
2022-09-12T10:15:07.945Z,64.80
2022-09-12T10:16:07.987Z,64.50
2022-09-12T10:17:07.936Z,65.97
2022-09-12T10:18:07.932Z,63.90
2022-09-12T10:19:07.931Z,63.19
2022-09-12T10:20:20.887Z,63.70
2022-09-12T10:21:07.927Z,63.19
2022-09-12T10:22:07.924Z,63.39
2022-09-12T10:23:07.918Z,63.70
2022-09-12T10:24:07.920Z,63.79
2022-09-12T10:25:07.914Z,64.10
2022-09-12T10:26:07.907Z,65.20
2022-09-12T10:27:07.909Z,64.67
2022-09-12T10:28:07.907Z,64.20
2022-09-12T10:29:07.901Z,64.20
2022-09-12T10:30:07.910Z,62.08
2022-09-12T10:31:07.947Z,64.43
2022-09-12T10:32:07.896Z,65.00
2022-09-12T10:33:07.891Z,63.79
2022-09-12T10:34:07.890Z,63.29
2022-09-12T10:35:07.885Z,62.49
2022-09-12T10:36:07.885Z,64.43
2022-09-12T10:37:07.882Z,63.70
2022-09-12T10:38:07.879Z,63.70
2022-09-12T10:39:07.876Z,64.20
2022-09-12T10:40:07.984Z,63.70
2022-09-12T10:41:07.873Z,63.79
2022-09-12T10:42:07.870Z,64.50
2022-09-12T10:43:07.865Z,65.00
2022-09-12T10:44:07.861Z,65.10
2022-09-12T10:45:07.866Z,64.17
2022-09-12T10:46:07.870Z,64.50
2022-09-12T10:47:07.854Z,64.07
2022-09-12T10:48:07.891Z,63.56
2022-09-12T10:49:07.847Z,64.00
2022-09-12T10:50:07.847Z,64.40
2022-09-12T10:51:07.846Z,63.26
2022-09-12T10:52:07.844Z,63.76
2022-09-12T10:53:07.840Z,63.67
2022-09-12T10:54:07.837Z,61.83
2022-09-12T10:55:07.834Z,61.93
2022-09-12T10:56:07.835Z,62.16
2022-09-12T10:57:07.829Z,62.43
2022-09-12T10:58:07.828Z,62.53
2022-09-12T10:59:07.827Z,62.30
2022-09-12T11:00:07.821Z,61.50
2022-09-12T11:01:07.851Z,60.77
2022-09-12T11:02:07.887Z,61.27
2022-09-12T11:03:07.815Z,59.36
2022-09-12T11:04:07.813Z,60.47
2022-09-12T11:05:07.807Z,60.77
2022-09-12T11:06:07.804Z,59.96
2022-09-12T11:07:07.804Z,59.94
2022-09-12T11:08:07.803Z,59.56
2022-09-12T11:09:07.803Z,59.03
2022-09-12T11:10:07.800Z,58.46
2022-09-12T11:11:07.796Z,59.06
2022-09-12T11:12:07.794Z,60.24
2022-09-12T11:13:07.791Z,59.44
2022-09-12T11:14:07.787Z,59.41
2022-09-12T11:15:07.789Z,57.43
2022-09-12T11:16:07.850Z,57.80
2022-09-12T11:17:11.641Z,57.50
2022-09-12T11:18:07.786Z,58.40
2022-09-12T11:19:07.780Z,60.08
2022-09-12T11:20:07.781Z,58.37
2022-09-12T11:21:07.775Z,58.07
2022-09-12T11:22:07.774Z,58.98
2022-09-12T11:23:07.769Z,58.35
2022-09-12T11:24:07.773Z,57.45
2022-09-12T11:25:07.765Z,56.24
2022-09-12T11:26:07.766Z,55.44
2022-09-12T11:27:07.763Z,56.12
2022-09-12T11:28:07.763Z,57.22
2022-09-12T11:29:07.766Z,58.00
2022-09-12T11:30:07.759Z,58.00
2022-09-12T11:31:07.886Z,57.50
2022-09-12T11:32:07.759Z,55.09
2022-09-12T11:33:07.772Z,54.92
2022-09-12T11:34:07.753Z,54.74
2022-09-12T11:35:07.753Z,56.48
2022-09-12T11:36:07.751Z,56.67
2022-09-12T11:37:10.943Z,55.17
2022-09-12T11:38:07.747Z,55.27
2022-09-12T11:39:07.747Z,54.97
2022-09-12T11:40:07.773Z,54.90
2022-09-12T11:41:07.753Z,55.30
2022-09-12T11:42:07.740Z,55.70
2022-09-12T11:43:07.747Z,57.10
2022-09-12T11:44:07.737Z,57.57
2022-09-12T11:45:07.737Z,56.98
2022-09-12T11:46:07.760Z,54.77
2022-09-12T11:47:07.735Z,53.47
2022-09-12T11:48:07.731Z,52.19
2022-09-12T11:49:07.730Z,53.77
2022-09-12T11:50:07.728Z,55.30
2022-09-12T11:51:07.725Z,54.50
2022-09-12T11:52:07.724Z,55.10
2022-09-12T11:53:07.733Z,54.20
2022-09-12T11:54:07.720Z,55.30
2022-09-12T11:55:07.726Z,54.70
2022-09-12T11:56:07.715Z,55.30
2022-09-12T11:57:07.717Z,55.20
2022-09-12T11:58:07.715Z,55.70
2022-09-12T11:59:07.712Z,55.98
2022-09-12T12:00:07.712Z,54.77
2022-09-12T12:01:07.709Z,55.37
2022-09-12T12:02:07.775Z,54.85
2022-09-12T12:03:07.703Z,54.14
2022-09-12T12:04:07.709Z,52.74
2022-09-12T12:05:07.697Z,52.74
2022-09-12T12:06:07.701Z,54.05
2022-09-12T12:07:07.698Z,54.24
2022-09-12T12:08:07.697Z,55.94
2022-09-12T12:09:07.697Z,56.45
2022-09-12T12:10:07.694Z,56.35
2022-09-12T12:11:07.697Z,56.15
2022-09-12T12:12:07.692Z,55.35
2022-09-12T12:13:11.942Z,54.85
2022-09-12T12:14:07.690Z,55.05
2022-09-12T12:15:07.687Z,53.94
2022-09-12T12:16:07.727Z,54.64
2022-09-12T12:17:07.683Z,55.44
2022-09-12T12:18:07.681Z,55.17
2022-09-12T12:19:10.705Z,54.77
2022-09-12T12:20:08.891Z,55.37
2022-09-12T12:21:07.679Z,56.17
2022-09-12T12:22:07.676Z,55.67
2022-09-12T12:23:07.676Z,55.77
2022-09-12T12:24:07.677Z,56.85
2022-09-12T12:25:07.675Z,55.15
2022-09-12T12:26:07.671Z,55.85
2022-09-12T12:27:07.670Z,54.74
2022-09-12T12:28:07.666Z,55.44
2022-09-12T12:29:07.669Z,55.12
2022-09-12T12:30:07.686Z,55.32
2022-09-12T12:31:07.682Z,54.32
2022-09-12T12:32:07.666Z,54.82
2022-09-12T12:33:07.659Z,55.49
2022-09-12T12:34:07.661Z,54.19
2022-09-12T12:35:07.657Z,54.10
2022-09-12T12:36:07.656Z,53.79
2022-09-12T12:37:07.654Z,54.39
2022-09-12T12:38:07.654Z,51.79
2022-09-12T12:39:07.658Z,52.62
2022-09-12T12:40:07.684Z,53.02
2022-09-12T12:41:07.646Z,53.22
2022-09-12T12:42:07.647Z,53.72
2022-09-12T12:43:07.664Z,54.79
2022-09-12T12:44:07.654Z,54.52
2022-09-12T12:45:07.643Z,53.22
2022-09-12T12:46:07.673Z,55.32
2022-09-12T12:47:07.646Z,55.62
2022-09-12T12:48:08.272Z,53.49
2022-09-12T12:49:07.638Z,52.42
2022-09-12T12:50:07.746Z,53.02
2022-09-12T12:51:07.638Z,53.62
2022-09-12T12:52:07.634Z,53.52
2022-09-12T12:53:07.663Z,54.52
2022-09-12T12:54:12.369Z,53.89
2022-09-12T12:55:07.671Z,54.79
2022-09-12T12:56:07.629Z,55.02
2022-09-12T12:57:07.638Z,54.49
2022-09-12T12:58:07.680Z,54.60
2022-09-12T12:59:07.626Z,53.79
2022-09-12T13:00:07.719Z,53.39
2022-09-12T13:01:07.620Z,54.79
2022-09-12T13:02:07.785Z,52.92
2022-09-12T13:03:07.622Z,53.69
2022-09-12T13:04:07.621Z,53.62
2022-09-12T13:05:07.618Z,52.92
2022-09-12T13:06:07.625Z,54.92
2022-09-12T13:07:08.638Z,55.22
2022-09-12T13:08:07.648Z,55.19
2022-09-12T13:09:07.615Z,55.42
2022-09-12T13:10:07.614Z,54.60
2022-09-12T13:11:07.612Z,55.02
2022-09-12T13:12:07.616Z,55.02
2022-09-12T13:13:07.644Z,55.12
2022-09-12T13:14:07.612Z,55.24
2022-09-12T13:15:07.609Z,56.05
2022-09-12T13:16:07.681Z,55.24
2022-09-12T13:17:07.611Z,55.94
2022-09-12T13:18:07.654Z,55.05